sensor_id;sensor_type;location;lat;lon;timestamp;temperature;humidity
45066;DHT22;30830;53.704;10.004;2022-12-24T00:01:56;3.60;99.90
45066;DHT22;30830;53.704;10.004;2022-12-24T00:04:22;3.60;99.90
45066;DHT22;30830;53.704;10.004;2022-12-24T00:06:47;3.60;99.90
45066;DHT22;30830;53.704;10.004;2022-12-24T00:09:13;3.60;99.90
45066;DHT22;30830;53.704;10.004;2022-12-24T00:11:38;3.60;99.90
45066;DHT22;30830;53.704;10.004;2022-12-24T00:14:04;3.60;99.90
45066;DHT22;30830;53.704;10.004;2022-12-24T00:16:29;3.60;99.90
45066;DHT22;30830;53.704;10.004;2022-12-24T00:18:55;3.60;99.90
45066;DHT22;30830;53.704;10.004;2022-12-24T00:21:20;3.60;99.90
45066;DHT22;30830;53.704;10.004;2022-12-24T00:23:46;3.60;99.90
45066;DHT22;30830;53.704;10.004;2022-12-24T00:26:12;3.70;99.90
45066;DHT22;30830;53.704;10.004;2022-12-24T00:28:39;3.70;99.90
45066;DHT22;30830;53.704;10.004;2022-12-24T00:33:34;3.70;99.90
45066;DHT22;30830;53.704;10.004;2022-12-24T00:35:59;3.70;99.90
45066;DHT22;30830;53.704;10.004;2022-12-24T00:38:25;3.60;99.90
45066;DHT22;30830;53.704;10.004;2022-12-24T00:40:51;3.70;99.90
45066;DHT22;30830;53.704;10.004;2022-12-24T00:43:16;3.70;99.90
45066;DHT22;30830;53.704;10.004;2022-12-24T00:45:42;3.70;99.90
45066;DHT22;30830;53.704;10.004;2022-12-24T00:48:07;3.70;99.90
45066;DHT22;30830;53.704;10.004;2022-12-24T00:50:33;3.70;99.90
45066;DHT22;30830;53.704;10.004;2022-12-24T00:52:58;3.70;99.90
45066;DHT22;30830;53.704;10.004;2022-12-24T00:55:24;3.70;99.90
45066;DHT22;30830;53.704;10.004;2022-12-24T00:57:50;3.70;99.90
45066;DHT22;30830;53.704;10.004;2022-12-24T01:00:15;3.70;99.90
45066;DHT22;30830;53.704;10.004;2022-12-24T01:02:42;3.70;99.90
45066;DHT22;30830;53.704;10.004;2022-12-24T01:05:10;3.70;99.90
45066;DHT22;30830;53.704;10.004;2022-12-24T01:07:38;3.70;99.90
45066;DHT22;30830;53.704;10.004;2022-12-24T01:10:05;3.70;99.90
45066;DHT22;30830;53.704;10.004;2022-12-24T01:12:31;3.70;99.90
45066;DHT22;30830;53.704;10.004;2022-12-24T01:14:56;3.80;99.90
45066;DHT22;30830;53.704;10.004;2022-12-24T01:17:22;3.70;99.90
45066;DHT22;30830;53.704;10.004;2022-12-24T01:19:47;3.80;99.90
45066;DHT22;30830;53.704;10.004;2022-12-24T01:22:13;3.80;99.90
45066;DHT22;30830;53.704;10.004;2022-12-24T01:24:39;3.70;99.90
45066;DHT22;30830;53.704;10.004;2022-12-24T01:27:06;3.70;99.90
45066;DHT22;30830;53.704;10.004;2022-12-24T01:29:31;3.70;99.90
45066;DHT22;30830;53.704;10.004;2022-12-24T01:31:57;3.70;99.90
45066;DHT22;30830;53.704;10.004;2022-12-24T01:34:22;3.70;99.90
45066;DHT22;30830;53.704;10.004;2022-12-24T01:36:48;3.70;99.90
45066;DHT22;30830;53.704;10.004;2022-12-24T01:39:13;3.70;99.90
45066;DHT22;30830;53.704;10.004;2022-12-24T01:41:39;3.70;99.90
45066;DHT22;30830;53.704;10.004;2022-12-24T01:44:29;3.70;99.90
45066;DHT22;30830;53.704;10.004;2022-12-24T01:47:12;3.70;99.90
45066;DHT22;30830;53.704;10.004;2022-12-24T01:49:41;3.70;99.90
45066;DHT22;30830;53.704;10.004;2022-12-24T01:52:20;3.70;99.90
45066;DHT22;30830;53.704;10.004;2022-12-24T01:54:50;3.70;99.90
45066;DHT22;30830;53.704;10.004;2022-12-24T01:57:48;3.70;99.90
45066;DHT22;30830;53.704;10.004;2022-12-24T02:00:15;3.70;99.90
45066;DHT22;30830;53.704;10.004;2022-12-24T02:02:43;3.60;99.90
45066;DHT22;30830;53.704;10.004;2022-12-24T02:05:27;3.70;99.90
45066;DHT22;30830;53.704;10.004;2022-12-24T02:07:54;3.70;99.90
45066;DHT22;30830;53.704;10.004;2022-12-24T02:10:21;3.70;99.90
45066;DHT22;30830;53.704;10.004;2022-12-24T02:12:47;3.60;99.90
45066;DHT22;30830;53.704;10.004;2022-12-24T02:15:15;3.60;99.90
45066;DHT22;30830;53.704;10.004;2022-12-24T02:18:01;3.60;99.90
45066;DHT22;30830;53.704;10.004;2022-12-24T02:20:54;3.60;99.90
45066;DHT22;30830;53.704;10.004;2022-12-24T02:23:59;3.60;99.90
45066;DHT22;30830;53.704;10.004;2022-12-24T02:29:50;3.60;99.90
45066;DHT22;30830;53.704;10.004;2022-12-24T02:32:32;3.60;99.90
45066;DHT22;30830;53.704;10.004;2022-12-24T02:35:14;3.60;99.90
45066;DHT22;30830;53.704;10.004;2022-12-24T02:37:51;3.60;99.90
45066;DHT22;30830;53.704;10.004;2022-12-24T02:40:22;3.60;99.90
45066;DHT22;30830;53.704;10.004;2022-12-24T02:42:54;3.60;99.90
45066;DHT22;30830;53.704;10.004;2022-12-24T02:45:26;3.70;99.90
45066;DHT22;30830;53.704;10.004;2022-12-24T02:47:54;3.60;99.90
45066;DHT22;30830;53.704;10.004;2022-12-24T02:50:20;3.60;99.90
45066;DHT22;30830;53.704;10.004;2022-12-24T02:52:47;3.60;99.90
45066;DHT22;30830;53.704;10.004;2022-12-24T02:55:15;3.60;99.90
45066;DHT22;30830;53.704;10.004;2022-12-24T02:57:49;3.60;99.90
45066;DHT22;30830;53.704;10.004;2022-12-24T03:00:18;3.60;99.90
45066;DHT22;30830;53.704;10.004;2022-12-24T03:02:54;3.60;99.90
45066;DHT22;30830;53.704;10.004;2022-12-24T03:05:50;3.60;99.90
45066;DHT22;30830;53.704;10.004;2022-12-24T03:08:29;3.60;99.90
45066;DHT22;30830;53.704;10.004;2022-12-24T03:11:08;3.60;99.90
45066;DHT22;30830;53.704;10.004;2022-12-24T03:13:35;3.60;99.90
45066;DHT22;30830;53.704;10.004;2022-12-24T03:16:04;3.60;99.90
45066;DHT22;30830;53.704;10.004;2022-12-24T03:18:31;3.60;99.90
45066;DHT22;30830;53.704;10.004;2022-12-24T03:21:05;3.60;99.90
45066;DHT22;30830;53.704;10.004;2022-12-24T03:23:32;3.60;99.90
45066;DHT22;30830;53.704;10.004;2022-12-24T03:26:00;3.60;99.90
45066;DHT22;30830;53.704;10.004;2022-12-24T03:28:29;3.70;99.90
45066;DHT22;30830;53.704;10.004;2022-12-24T03:30:55;3.60;99.90
45066;DHT22;30830;53.704;10.004;2022-12-24T03:33:24;3.60;99.90
45066;DHT22;30830;53.704;10.004;2022-12-24T03:35:50;3.60;99.90
45066;DHT22;30830;53.704;10.004;2022-12-24T03:38:15;3.70;99.90
45066;DHT22;30830;53.704;10.004;2022-12-24T03:40:41;3.70;99.90
45066;DHT22;30830;53.704;10.004;2022-12-24T03:43:06;3.60;99.90
45066;DHT22;30830;53.704;10.004;2022-12-24T03:45:32;3.70;99.90
45066;DHT22;30830;53.704;10.004;2022-12-24T03:47:57;3.60;99.90
45066;DHT22;30830;53.704;10.004;2022-12-24T03:50:23;3.60;99.90
45066;DHT22;30830;53.704;10.004;2022-12-24T03:52:48;3.60;99.90
45066;DHT22;30830;53.704;10.004;2022-12-24T03:55:14;3.60;99.90
45066;DHT22;30830;53.704;10.004;2022-12-24T03:57:39;3.60;99.90
45066;DHT22;30830;53.704;10.004;2022-12-24T04:00:05;3.60;99.90
45066;DHT22;30830;53.704;10.004;2022-12-24T04:02:31;3.60;99.90
45066;DHT22;30830;53.704;10.004;2022-12-24T04:04:57;3.60;99.90
45066;DHT22;30830;53.704;10.004;2022-12-24T04:07:22;3.60;99.90
45066;DHT22;30830;53.704;10.004;2022-12-24T04:09:48;3.60;99.90
45066;DHT22;30830;53.704;10.004;2022-12-24T04:12:14;3.60;99.90
45066;DHT22;30830;53.704;10.004;2022-12-24T04:14:39;3.60;99.90
45066;DHT22;30830;53.704;10.004;2022-12-24T04:17:05;3.60;99.90
45066;DHT22;30830;53.704;10.004;2022-12-24T04:19:30;3.60;99.90
45066;DHT22;30830;53.704;10.004;2022-12-24T04:21:56;3.60;99.90
45066;DHT22;30830;53.704;10.004;2022-12-24T04:24:21;3.70;99.90
45066;DHT22;30830;53.704;10.004;2022-12-24T04:26:47;3.70;99.90
45066;DHT22;30830;53.704;10.004;2022-12-24T04:29:13;3.60;99.90
45066;DHT22;30830;53.704;10.004;2022-12-24T04:31:38;3.60;99.90
45066;DHT22;30830;53.704;10.004;2022-12-24T04:34:04;3.60;99.90
45066;DHT22;30830;53.704;10.004;2022-12-24T04:36:29;3.60;99.90
45066;DHT22;30830;53.704;10.004;2022-12-24T04:38:55;3.70;99.90
45066;DHT22;30830;53.704;10.004;2022-12-24T04:41:22;3.60;99.90
45066;DHT22;30830;53.704;10.004;2022-12-24T04:43:48;3.70;99.90
45066;DHT22;30830;53.704;10.004;2022-12-24T04:46:20;3.70;99.90
45066;DHT22;30830;53.704;10.004;2022-12-24T04:48:48;3.60;99.90
45066;DHT22;30830;53.704;10.004;2022-12-24T04:51:14;3.60;99.90
45066;DHT22;30830;53.704;10.004;2022-12-24T04:53:41;3.60;99.90
45066;DHT22;30830;53.704;10.004;2022-12-24T04:56:11;3.60;99.90
45066;DHT22;30830;53.704;10.004;2022-12-24T04:58:37;3.70;99.90
45066;DHT22;30830;53.704;10.004;2022-12-24T05:01:08;3.70;99.90
45066;DHT22;30830;53.704;10.004;2022-12-24T05:03:35;3.70;99.90
45066;DHT22;30830;53.704;10.004;2022-12-24T05:06:06;3.70;99.90
45066;DHT22;30830;53.704;10.004;2022-12-24T05:08:32;3.70;99.90
45066;DHT22;30830;53.704;10.004;2022-12-24T05:10:59;3.70;99.90
45066;DHT22;30830;53.704;10.004;2022-12-24T05:13:25;3.70;99.90
45066;DHT22;30830;53.704;10.004;2022-12-24T05:15:51;3.60;99.90
45066;DHT22;30830;53.704;10.004;2022-12-24T05:18:16;3.70;99.90
45066;DHT22;30830;53.704;10.004;2022-12-24T05:20:42;3.70;99.90
45066;DHT22;30830;53.704;10.004;2022-12-24T05:23:15;3.70;99.90
45066;DHT22;30830;53.704;10.004;2022-12-24T05:25:59;3.70;99.90
45066;DHT22;30830;53.704;10.004;2022-12-24T05:28:43;3.70;99.90
45066;DHT22;30830;53.704;10.004;2022-12-24T05:31:09;3.70;99.90
45066;DHT22;30830;53.704;10.004;2022-12-24T05:33:34;3.70;99.90
45066;DHT22;30830;53.704;10.004;2022-12-24T05:36:00;3.70;99.90
45066;DHT22;30830;53.704;10.004;2022-12-24T05:38:25;3.70;99.90
45066;DHT22;30830;53.704;10.004;2022-12-24T05:40:51;3.70;99.90
45066;DHT22;30830;53.704;10.004;2022-12-24T05:43:17;3.70;99.90
45066;DHT22;30830;53.704;10.004;2022-12-24T05:45:42;3.70;99.90
45066;DHT22;30830;53.704;10.004;2022-12-24T05:48:08;3.70;99.90
45066;DHT22;30830;53.704;10.004;2022-12-24T05:50:35;3.70;99.90
45066;DHT22;30830;53.704;10.004;2022-12-24T05:53:00;3.70;99.90
45066;DHT22;30830;53.704;10.004;2022-12-24T05:55:26;3.70;99.90
45066;DHT22;30830;53.704;10.004;2022-12-24T05:57:51;3.70;99.90
45066;DHT22;30830;53.704;10.004;2022-12-24T06:00:17;3.70;99.90
45066;DHT22;30830;53.704;10.004;2022-12-24T06:02:43;3.70;99.90
45066;DHT22;30830;53.704;10.004;2022-12-24T06:05:08;3.70;99.90
45066;DHT22;30830;53.704;10.004;2022-12-24T06:07:34;3.70;99.90
45066;DHT22;30830;53.704;10.004;2022-12-24T06:09:59;3.70;99.90
45066;DHT22;30830;53.704;10.004;2022-12-24T06:12:25;3.70;99.90
45066;DHT22;30830;53.704;10.004;2022-12-24T06:14:51;3.70;99.90
45066;DHT22;30830;53.704;10.004;2022-12-24T06:17:19;3.70;99.90
45066;DHT22;30830;53.704;10.004;2022-12-24T06:19:45;3.70;99.90
45066;DHT22;30830;53.704;10.004;2022-12-24T06:22:10;3.70;99.90
45066;DHT22;30830;53.704;10.004;2022-12-24T06:24:36;3.70;99.90
45066;DHT22;30830;53.704;10.004;2022-12-24T06:27:01;3.70;99.90
45066;DHT22;30830;53.704;10.004;2022-12-24T06:29:27;3.70;99.90
45066;DHT22;30830;53.704;10.004;2022-12-24T06:31:53;3.70;99.90
45066;DHT22;30830;53.704;10.004;2022-12-24T06:34:18;3.70;99.90
45066;DHT22;30830;53.704;10.004;2022-12-24T06:36:44;3.70;99.90
45066;DHT22;30830;53.704;10.004;2022-12-24T06:39:09;3.70;99.90
45066;DHT22;30830;53.704;10.004;2022-12-24T06:41:35;3.70;99.90
45066;DHT22;30830;53.704;10.004;2022-12-24T06:44:00;3.70;99.90
45066;DHT22;30830;53.704;10.004;2022-12-24T06:46:26;3.70;99.90
45066;DHT22;30830;53.704;10.004;2022-12-24T06:48:52;3.70;99.90
45066;DHT22;30830;53.704;10.004;2022-12-24T06:51:19;3.70;99.90
45066;DHT22;30830;53.704;10.004;2022-12-24T06:53:46;3.70;99.90
45066;DHT22;30830;53.704;10.004;2022-12-24T06:56:12;3.80;99.90
45066;DHT22;30830;53.704;10.004;2022-12-24T06:58:39;3.80;99.90
45066;DHT22;30830;53.704;10.004;2022-12-24T07:01:06;3.80;99.90
45066;DHT22;30830;53.704;10.004;2022-12-24T07:03:33;3.80;99.90
45066;DHT22;30830;53.704;10.004;2022-12-24T07:05:59;3.80;99.90
45066;DHT22;30830;53.704;10.004;2022-12-24T07:08:25;3.70;99.90
45066;DHT22;30830;53.704;10.004;2022-12-24T07:10:51;3.70;99.90
45066;DHT22;30830;53.704;10.004;2022-12-24T07:13:17;3.80;99.90
45066;DHT22;30830;53.704;10.004;2022-12-24T07:15:44;3.70;99.90
45066;DHT22;30830;53.704;10.004;2022-12-24T07:18:10;3.70;99.90
45066;DHT22;30830;53.704;10.004;2022-12-24T07:20:36;3.70;99.90
45066;DHT22;30830;53.704;10.004;2022-12-24T07:23:02;3.70;99.90
45066;DHT22;30830;53.704;10.004;2022-12-24T07:25:27;3.70;99.90
45066;DHT22;30830;53.704;10.004;2022-12-24T07:27:53;3.70;99.90
45066;DHT22;30830;53.704;10.004;2022-12-24T07:30:19;3.80;99.90
45066;DHT22;30830;53.704;10.004;2022-12-24T07:32:44;3.70;99.90
45066;DHT22;30830;53.704;10.004;2022-12-24T07:35:10;3.70;99.90
45066;DHT22;30830;53.704;10.004;2022-12-24T07:37:35;3.70;99.90
45066;DHT22;30830;53.704;10.004;2022-12-24T07:40:02;3.70;99.90
45066;DHT22;30830;53.704;10.004;2022-12-24T07:42:30;3.70;99.90
45066;DHT22;30830;53.704;10.004;2022-12-24T07:44:56;3.70;99.90
45066;DHT22;30830;53.704;10.004;2022-12-24T07:47:21;3.80;99.90
45066;DHT22;30830;53.704;10.004;2022-12-24T07:49:47;3.70;99.90
45066;DHT22;30830;53.704;10.004;2022-12-24T07:52:12;3.70;99.90
45066;DHT22;30830;53.704;10.004;2022-12-24T07:54:38;3.70;99.90
45066;DHT22;30830;53.704;10.004;2022-12-24T07:57:03;3.70;99.90
45066;DHT22;30830;53.704;10.004;2022-12-24T07:59:29;3.80;99.90
45066;DHT22;30830;53.704;10.004;2022-12-24T08:01:55;3.80;99.90
45066;DHT22;30830;53.704;10.004;2022-12-24T08:04:20;3.80;99.90
45066;DHT22;30830;53.704;10.004;2022-12-24T08:06:46;3.80;99.90
45066;DHT22;30830;53.704;10.004;2022-12-24T08:09:11;3.80;99.90
45066;DHT22;30830;53.704;10.004;2022-12-24T08:11:38;3.80;99.90
45066;DHT22;30830;53.704;10.004;2022-12-24T08:14:04;3.80;99.90
45066;DHT22;30830;53.704;10.004;2022-12-24T08:16:29;3.80;99.90
45066;DHT22;30830;53.704;10.004;2022-12-24T08:18:55;3.80;99.90
45066;DHT22;30830;53.704;10.004;2022-12-24T08:21:20;3.80;99.90
45066;DHT22;30830;53.704;10.004;2022-12-24T08:23:46;3.80;99.90
45066;DHT22;30830;53.704;10.004;2022-12-24T08:26:12;3.80;99.90
45066;DHT22;30830;53.704;10.004;2022-12-24T08:28:38;3.80;99.90
45066;DHT22;30830;53.704;10.004;2022-12-24T08:31:03;3.80;99.90
45066;DHT22;30830;53.704;10.004;2022-12-24T08:33:29;3.80;99.90
45066;DHT22;30830;53.704;10.004;2022-12-24T08:35:56;3.80;99.90
45066;DHT22;30830;53.704;10.004;2022-12-24T08:38:22;3.80;99.90
45066;DHT22;30830;53.704;10.004;2022-12-24T08:40:48;3.80;99.90
45066;DHT22;30830;53.704;10.004;2022-12-24T08:43:18;3.80;99.90
45066;DHT22;30830;53.704;10.004;2022-12-24T08:45:45;3.80;99.90
45066;DHT22;30830;53.704;10.004;2022-12-24T08:48:10;3.80;99.90
45066;DHT22;30830;53.704;10.004;2022-12-24T08:50:40;3.80;99.90
45066;DHT22;30830;53.704;10.004;2022-12-24T08:53:07;3.80;99.90
45066;DHT22;30830;53.704;10.004;2022-12-24T08:55:33;3.80;99.90
45066;DHT22;30830;53.704;10.004;2022-12-24T08:57:59;3.80;99.90
45066;DHT22;30830;53.704;10.004;2022-12-24T09:00:25;3.90;99.90
45066;DHT22;30830;53.704;10.004;2022-12-24T09:02:51;3.90;99.90
45066;DHT22;30830;53.704;10.004;2022-12-24T09:05:17;3.90;99.90
45066;DHT22;30830;53.704;10.004;2022-12-24T09:07:43;3.90;99.90
45066;DHT22;30830;53.704;10.004;2022-12-24T09:10:10;3.90;99.90
45066;DHT22;30830;53.704;10.004;2022-12-24T09:12:36;3.90;99.90
45066;DHT22;30830;53.704;10.004;2022-12-24T09:15:02;3.90;99.90
45066;DHT22;30830;53.704;10.004;2022-12-24T09:17:28;3.90;99.90
45066;DHT22;30830;53.704;10.004;2022-12-24T09:19:54;3.90;99.90
45066;DHT22;30830;53.704;10.004;2022-12-24T09:22:21;3.90;99.90
45066;DHT22;30830;53.704;10.004;2022-12-24T09:24:46;3.90;99.90
45066;DHT22;30830;53.704;10.004;2022-12-24T09:27:12;3.90;99.90
45066;DHT22;30830;53.704;10.004;2022-12-24T09:29:37;3.90;99.90
45066;DHT22;30830;53.704;10.004;2022-12-24T09:32:05;3.90;99.90
45066;DHT22;30830;53.704;10.004;2022-12-24T09:34:31;3.90;99.90
45066;DHT22;30830;53.704;10.004;2022-12-24T09:36:56;4.00;99.90
45066;DHT22;30830;53.704;10.004;2022-12-24T09:39:24;4.00;99.90
45066;DHT22;30830;53.704;10.004;2022-12-24T09:42:12;4.00;99.90
45066;DHT22;30830;53.704;10.004;2022-12-24T09:50:02;4.00;99.90
45066;DHT22;30830;53.704;10.004;2022-12-24T09:52:36;4.00;99.90
45066;DHT22;30830;53.704;10.004;2022-12-24T09:55:18;4.00;99.90
45066;DHT22;30830;53.704;10.004;2022-12-24T09:57:46;4.10;99.90
45066;DHT22;30830;53.704;10.004;2022-12-24T10:00:27;4.10;99.90
45066;DHT22;30830;53.704;10.004;2022-12-24T10:02:52;4.10;99.90
45066;DHT22;30830;53.704;10.004;2022-12-24T10:05:39;4.10;99.90
45066;DHT22;30830;53.704;10.004;2022-12-24T10:22:47;4.20;99.90
45066;DHT22;30830;53.704;10.004;2022-12-24T10:27:59;4.20;99.90
45066;DHT22;30830;53.704;10.004;2022-12-24T10:30:27;4.20;99.90
45066;DHT22;30830;53.704;10.004;2022-12-24T10:32:54;4.30;99.90
45066;DHT22;30830;53.704;10.004;2022-12-24T10:35:28;4.30;99.90
45066;DHT22;30830;53.704;10.004;2022-12-24T10:37:56;4.30;99.90
45066;DHT22;30830;53.704;10.004;2022-12-24T10:40:41;4.30;99.90
45066;DHT22;30830;53.704;10.004;2022-12-24T10:43:18;4.30;99.90
45066;DHT22;30830;53.704;10.004;2022-12-24T10:45:52;4.30;99.90
45066;DHT22;30830;53.704;10.004;2022-12-24T10:48:24;4.30;99.90
45066;DHT22;30830;53.704;10.004;2022-12-24T10:56:03;4.40;99.90
45066;DHT22;30830;53.704;10.004;2022-12-24T10:58:29;4.40;99.90
45066;DHT22;30830;53.704;10.004;2022-12-24T11:00:55;4.40;99.90
45066;DHT22;30830;53.704;10.004;2022-12-24T11:03:24;4.40;99.90
45066;DHT22;30830;53.704;10.004;2022-12-24T11:06:08;4.40;99.90
45066;DHT22;30830;53.704;10.004;2022-12-24T11:08:37;4.40;99.90
45066;DHT22;30830;53.704;10.004;2022-12-24T11:11:08;4.40;99.90
45066;DHT22;30830;53.704;10.004;2022-12-24T11:13:40;4.50;99.90
45066;DHT22;30830;53.704;10.004;2022-12-24T11:16:49;4.50;99.90
45066;DHT22;30830;53.704;10.004;2022-12-24T11:19:28;4.50;99.90
45066;DHT22;30830;53.704;10.004;2022-12-24T11:22:00;4.50;99.90
45066;DHT22;30830;53.704;10.004;2022-12-24T11:24:29;4.50;99.90
45066;DHT22;30830;53.704;10.004;2022-12-24T11:27:29;4.50;99.90
45066;DHT22;30830;53.704;10.004;2022-12-24T11:30:25;4.60;99.90
45066;DHT22;30830;53.704;10.004;2022-12-24T11:35:27;4.70;99.90
45066;DHT22;30830;53.704;10.004;2022-12-24T11:40:30;4.70;99.90
45066;DHT22;30830;53.704;10.004;2022-12-24T11:43:01;4.70;99.90
45066;DHT22;30830;53.704;10.004;2022-12-24T11:45:31;4.70;99.90
45066;DHT22;30830;53.704;10.004;2022-12-24T11:47:58;4.80;99.90
45066;DHT22;30830;53.704;10.004;2022-12-24T11:50:34;4.90;99.90
45066;DHT22;30830;53.704;10.004;2022-12-24T11:53:09;4.90;99.90
45066;DHT22;30830;53.704;10.004;2022-12-24T11:55:49;5.00;99.90
45066;DHT22;30830;53.704;10.004;2022-12-24T11:58:34;5.00;99.90
45066;DHT22;30830;53.704;10.004;2022-12-24T12:01:15;5.00;99.90
45066;DHT22;30830;53.704;10.004;2022-12-24T12:03:49;5.00;99.90
45066;DHT22;30830;53.704;10.004;2022-12-24T12:08:44;5.00;99.90
45066;DHT22;30830;53.704;10.004;2022-12-24T12:11:12;5.00;99.90
45066;DHT22;30830;53.704;10.004;2022-12-24T12:13:42;5.10;99.90
45066;DHT22;30830;53.704;10.004;2022-12-24T12:19:16;5.10;99.90
45066;DHT22;30830;53.704;10.004;2022-12-24T12:21:45;5.10;99.90
45066;DHT22;30830;53.704;10.004;2022-12-24T12:24:43;5.10;99.90
45066;DHT22;30830;53.704;10.004;2022-12-24T12:27:38;5.10;99.90
45066;DHT22;30830;53.704;10.004;2022-12-24T12:30:13;5.10;99.90
45066;DHT22;30830;53.704;10.004;2022-12-24T12:33:18;5.10;99.90
45066;DHT22;30830;53.704;10.004;2022-12-24T12:35:44;5.10;99.90
45066;DHT22;30830;53.704;10.004;2022-12-24T12:38:29;5.20;99.90
45066;DHT22;30830;53.704;10.004;2022-12-24T12:43:55;5.30;99.90
45066;DHT22;30830;53.704;10.004;2022-12-24T12:46:50;5.30;99.90
45066;DHT22;30830;53.704;10.004;2022-12-24T12:49:28;5.30;99.90
45066;DHT22;30830;53.704;10.004;2022-12-24T12:57:17;5.30;99.90
45066;DHT22;30830;53.704;10.004;2022-12-24T12:59:55;5.40;99.90
45066;DHT22;30830;53.704;10.004;2022-12-24T13:22:36;5.50;99.90
45066;DHT22;30830;53.704;10.004;2022-12-24T13:25:02;5.50;99.90
45066;DHT22;30830;53.704;10.004;2022-12-24T13:27:29;5.60;99.90
45066;DHT22;30830;53.704;10.004;2022-12-24T13:29:58;5.60;99.90
45066;DHT22;30830;53.704;10.004;2022-12-24T13:42:49;5.70;99.90
45066;DHT22;30830;53.704;10.004;2022-12-24T13:47:53;5.60;99.90
45066;DHT22;30830;53.704;10.004;2022-12-24T13:53:03;5.70;99.90
45066;DHT22;30830;53.704;10.004;2022-12-24T13:55:29;5.60;99.90
45066;DHT22;30830;53.704;10.004;2022-12-24T13:58:00;5.60;99.90
45066;DHT22;30830;53.704;10.004;2022-12-24T14:00:41;5.60;99.90
45066;DHT22;30830;53.704;10.004;2022-12-24T14:05:52;5.60;99.90
45066;DHT22;30830;53.704;10.004;2022-12-24T14:08:28;5.60;99.90
45066;DHT22;30830;53.704;10.004;2022-12-24T14:12:12;5.60;99.90
45066;DHT22;30830;53.704;10.004;2022-12-24T14:16:28;5.60;99.90
45066;DHT22;30830;53.704;10.004;2022-12-24T14:24:17;5.70;99.90
45066;DHT22;30830;53.704;10.004;2022-12-24T14:26:59;5.70;99.90
45066;DHT22;30830;53.704;10.004;2022-12-24T14:29:30;5.70;99.90
45066;DHT22;30830;53.704;10.004;2022-12-24T14:31:58;5.70;99.90
45066;DHT22;30830;53.704;10.004;2022-12-24T14:34:24;5.70;99.90
45066;DHT22;30830;53.704;10.004;2022-12-24T14:36:53;5.70;99.90
45066;DHT22;30830;53.704;10.004;2022-12-24T14:39:33;5.80;99.90
45066;DHT22;30830;53.704;10.004;2022-12-24T14:42:21;5.80;99.90
45066;DHT22;30830;53.704;10.004;2022-12-24T14:45:27;5.80;99.90
45066;DHT22;30830;53.704;10.004;2022-12-24T14:53:12;5.80;99.90
45066;DHT22;30830;53.704;10.004;2022-12-24T14:55:41;5.70;99.90
45066;DHT22;30830;53.704;10.004;2022-12-24T14:58:31;5.70;99.90
45066;DHT22;30830;53.704;10.004;2022-12-24T15:01:02;5.70;99.90
45066;DHT22;30830;53.704;10.004;2022-12-24T15:03:30;5.70;99.90
45066;DHT22;30830;53.704;10.004;2022-12-24T15:06:02;5.70;99.90
45066;DHT22;30830;53.704;10.004;2022-12-24T15:08:31;5.70;99.90
45066;DHT22;30830;53.704;10.004;2022-12-24T15:11:04;5.70;99.90
45066;DHT22;30830;53.704;10.004;2022-12-24T15:13:36;5.70;99.90
45066;DHT22;30830;53.704;10.004;2022-12-24T15:16:18;5.70;99.90
45066;DHT22;30830;53.704;10.004;2022-12-24T15:18:48;5.80;99.90
45066;DHT22;30830;53.704;10.004;2022-12-24T15:21:27;5.80;99.90
45066;DHT22;30830;53.704;10.004;2022-12-24T15:23:53;5.80;99.90
45066;DHT22;30830;53.704;10.004;2022-12-24T15:28:44;5.90;99.90
45066;DHT22;30830;53.704;10.004;2022-12-24T15:31:14;5.90;99.90
45066;DHT22;30830;53.704;10.004;2022-12-24T15:33:39;5.90;99.90
45066;DHT22;30830;53.704;10.004;2022-12-24T15:36:08;6.00;99.90
45066;DHT22;30830;53.704;10.004;2022-12-24T15:38:37;6.00;99.90
45066;DHT22;30830;53.704;10.004;2022-12-24T15:43:43;6.00;99.90
45066;DHT22;30830;53.704;10.004;2022-12-24T15:46:19;6.10;99.90
45066;DHT22;30830;53.704;10.004;2022-12-24T15:48:45;6.10;99.90
45066;DHT22;30830;53.704;10.004;2022-12-24T15:51:11;6.10;99.90
45066;DHT22;30830;53.704;10.004;2022-12-24T15:53:42;6.10;99.90
45066;DHT22;30830;53.704;10.004;2022-12-24T15:58:36;6.10;99.90
45066;DHT22;30830;53.704;10.004;2022-12-24T16:01:25;6.20;99.90
45066;DHT22;30830;53.704;10.004;2022-12-24T16:06:19;6.20;99.90
45066;DHT22;30830;53.704;10.004;2022-12-24T16:08:45;6.20;99.90
45066;DHT22;30830;53.704;10.004;2022-12-24T16:13:52;6.20;99.90
45066;DHT22;30830;53.704;10.004;2022-12-24T16:16:28;6.30;99.90
45066;DHT22;30830;53.704;10.004;2022-12-24T16:18:57;6.40;99.90
45066;DHT22;30830;53.704;10.004;2022-12-24T16:21:37;6.40;99.90
45066;DHT22;30830;53.704;10.004;2022-12-24T16:24:16;6.40;99.90
45066;DHT22;30830;53.704;10.004;2022-12-24T16:26:42;6.50;99.90
45066;DHT22;30830;53.704;10.004;2022-12-24T16:29:10;6.50;99.90
45066;DHT22;30830;53.704;10.004;2022-12-24T16:31:42;6.60;99.90
45066;DHT22;30830;53.704;10.004;2022-12-24T16:34:11;6.60;99.90
45066;DHT22;30830;53.704;10.004;2022-12-24T16:36:39;6.60;99.90
45066;DHT22;30830;53.704;10.004;2022-12-24T16:39:12;6.60;99.90
45066;DHT22;30830;53.704;10.004;2022-12-24T16:41:51;6.70;99.90
45066;DHT22;30830;53.704;10.004;2022-12-24T16:44:36;6.70;99.90
45066;DHT22;30830;53.704;10.004;2022-12-24T16:47:03;6.70;99.90
45066;DHT22;30830;53.704;10.004;2022-12-24T16:49:30;6.70;99.90
45066;DHT22;30830;53.704;10.004;2022-12-24T16:51:55;6.80;99.90
45066;DHT22;30830;53.704;10.004;2022-12-24T16:54:21;6.80;99.90
45066;DHT22;30830;53.704;10.004;2022-12-24T16:56:47;6.80;99.90
45066;DHT22;30830;53.704;10.004;2022-12-24T16:59:18;6.80;99.90
45066;DHT22;30830;53.704;10.004;2022-12-24T17:01:46;6.80;99.90
45066;DHT22;30830;53.704;10.004;2022-12-24T17:04:12;6.90;99.90
45066;DHT22;30830;53.704;10.004;2022-12-24T17:06:38;7.00;99.90
45066;DHT22;30830;53.704;10.004;2022-12-24T17:09:04;7.00;99.90
45066;DHT22;30830;53.704;10.004;2022-12-24T17:11:29;7.00;99.90
45066;DHT22;30830;53.704;10.004;2022-12-24T17:13:55;7.00;99.90
45066;DHT22;30830;53.704;10.004;2022-12-24T17:16:21;7.10;99.90
45066;DHT22;30830;53.704;10.004;2022-12-24T17:18:47;7.10;99.90
45066;DHT22;30830;53.704;10.004;2022-12-24T17:21:14;7.10;99.90
45066;DHT22;30830;53.704;10.004;2022-12-24T17:23:40;7.10;99.90
45066;DHT22;30830;53.704;10.004;2022-12-24T17:26:07;7.10;99.90
45066;DHT22;30830;53.704;10.004;2022-12-24T17:28:32;7.20;99.90
45066;DHT22;30830;53.704;10.004;2022-12-24T17:30:58;7.20;99.90
45066;DHT22;30830;53.704;10.004;2022-12-24T17:33:24;7.20;99.90
45066;DHT22;30830;53.704;10.004;2022-12-24T17:35:50;7.20;99.90
45066;DHT22;30830;53.704;10.004;2022-12-24T17:38:17;7.20;99.90
45066;DHT22;30830;53.704;10.004;2022-12-24T17:40:42;7.20;99.90
45066;DHT22;30830;53.704;10.004;2022-12-24T17:43:08;7.20;99.90